Time,TemperatureF,DewpointF,PressureIn,WindDirection,WindDirectionDegrees,WindSpeedMPH,WindSpeedGustMPH,Humidity,HourlyPrecipIn,Conditions,Clouds,dailyrainin,SolarRadiationWatts/m^2,SoftwareType,DateUTC
2013-03-07 07:00:00,25.0,24.0,29.94,NW,321,1.0,-999.0,97,-99.99,,,-99.99,81.400002,,2013-03-07 14:00:00,
2013-03-07 07:54:00,25.0,24.0,29.94,NW,321,1.0,-999.0,97,-99.99,,,-99.99,81.400002,,2013-03-07 14:54:00,
2013-03-07 08:00:00,29.0,26.0,29.97,East,98,2.0,-999.0,91,-99.99,,,-99.99,187.100006,,2013-03-07 15:00:00,
2013-03-07 08:53:00,29.0,26.0,29.97,East,98,2.0,-999.0,91,-99.99,,,-99.99,187.100006,,2013-03-07 15:53:00,
2013-03-07 09:00:00,31.0,28.0,29.98,SE,127,1.0,-999.0,87,-99.99,,,-99.99,313.700012,,2013-03-07 16:00:00,
2013-03-07 09:53:00,31.0,28.0,29.98,SE,127,1.0,-999.0,87,-99.99,,,-99.99,313.700012,,2013-03-07 16:53:00,
2013-03-07 10:00:00,37.0,28.0,29.99,South,170,2.0,-999.0,71,-99.99,,,-99.99,525.299988,,2013-03-07 17:00:00,
2013-03-07 10:54:00,37.0,28.0,29.99,South,170,2.0,-999.0,71,-99.99,,,-99.99,525.299988,,2013-03-07 17:54:00,
2013-03-07 11:00:00,41.0,29.0,30.00,NW,326,2.0,-999.0,60,-99.99,,,-99.99,607.900024,,2013-03-07 18:00:00,
2013-03-07 11:53:00,41.0,29.0,30.00,NW,326,2.0,-999.0,60,-99.99,,,-99.99,607.900024,,2013-03-07 18:53:00,
2013-03-07 12:00:00,45.0,28.0,29.99,North,7,3.0,-999.0,50,-99.99,,,-99.99,643.299988,,2013-03-07 19:00:00,
2013-03-07 12:53:00,45.0,28.0,29.99,North,7,3.0,-999.0,50,-99.99,,,-99.99,643.299988,,2013-03-07 19:53:00,
2013-03-07 13:00:00,50.0,30.0,29.97,ENE,68,3.0,-999.0,46,-99.99,,,-99.99,704.000000,,2013-03-07 20:00:00,
2013-03-07 13:54:00,50.0,30.0,29.97,ENE,68,3.0,-999.0,46,-99.99,,,-99.99,704.000000,,2013-03-07 20:54:00,
2013-03-07 14:00:00,52.0,29.0,29.96,East,82,4.0,-999.0,40,-99.99,,,-99.99,551.799988,,2013-03-07 21:00:00,
2013-03-07 14:53:00,52.0,29.0,29.96,East,82,4.0,-999.0,40,-99.99,,,-99.99,551.799988,,2013-03-07 21:53:00,
2013-03-07 15:00:00,54.0,29.0,29.96,East,82,7.0,-999.0,37,-99.99,,,-99.99,537.200012,,2013-03-07 22:00:00,
2013-03-07 15:54:00,54.0,29.0,29.96,East,82,7.0,-999.0,37,-99.99,,,-99.99,537.200012,,2013-03-07 22:54:00,
2013-03-07 16:00:00,52.0,29.0,29.97,ESE,106,9.0,-999.0,41,-99.99,,,-99.99,293.799988,,2013-03-07 23:00:00,
2013-03-07 16:54:00,52.0,29.0,29.97,ESE,106,9.0,-999.0,41,-99.99,,,-99.99,293.799988,,2013-03-07 23:54:00,
2013-03-07 17:00:00,48.0,30.0,29.98,ESE,114,9.0,-999.0,49,-99.99,,,-99.99,202.500000,,2013-03-08 00:00:00,
2013-03-07 17:54:00,48.0,30.0,29.98,ESE,114,9.0,-999.0,49,-99.99,,,-99.99,202.500000,,2013-03-08 00:54:00,